sensor_id;sensor_type;location;lat;lon;timestamp;pressure;altitude;pressure_sealevel;temperature;humidity
23229;BME280;11783;50.350;6.576;2023-04-25T00:00:18;95575.53;;;7.37;100.00
23229;BME280;11783;50.350;6.576;2023-04-25T00:02:43;95573.53;;;7.27;100.00
23229;BME280;11783;50.350;6.576;2023-04-25T00:05:08;95572.50;;;7.28;100.00
23229;BME280;11783;50.350;6.576;2023-04-25T00:07:34;95569.38;;;7.32;99.78
23229;BME280;11783;50.350;6.576;2023-04-25T00:10:00;95564.31;;;7.30;99.86
23229;BME280;11783;50.350;6.576;2023-04-25T00:12:25;95562.78;;;7.34;100.00
23229;BME280;11783;50.350;6.576;2023-04-25T00:14:53;95562.22;;;7.32;99.84
23229;BME280;11783;50.350;6.576;2023-04-25T00:17:22;95568.00;;;7.29;99.77
23229;BME280;11783;50.350;6.576;2023-04-25T00:19:49;95563.50;;;7.29;99.76
23229;BME280;11783;50.350;6.576;2023-04-25T00:22:15;95575.59;;;7.25;99.82
23229;BME280;11783;50.350;6.576;2023-04-25T00:24:40;95569.59;;;7.30;99.63
23229;BME280;11783;50.350;6.576;2023-04-25T00:27:06;95576.97;;;7.28;99.79
23229;BME280;11783;50.350;6.576;2023-04-25T00:29:31;95559.59;;;7.32;99.88
23229;BME280;11783;50.350;6.576;2023-04-25T00:31:57;95562.00;;;7.34;99.44
23229;BME280;11783;50.350;6.576;2023-04-25T00:34:22;95563.03;;;7.33;99.58
23229;BME280;11783;50.350;6.576;2023-04-25T00:36:47;95569.50;;;7.25;100.00
23229;BME280;11783;50.350;6.576;2023-04-25T00:39:12;95572.84;;;7.20;100.00
23229;BME280;11783;50.350;6.576;2023-04-25T00:41:38;95569.66;;;7.18;100.00
23229;BME280;11783;50.350;6.576;2023-04-25T00:44:03;95578.63;;;7.17;100.00
23229;BME280;11783;50.350;6.576;2023-04-25T00:46:32;95563.25;;;7.14;100.00
23229;BME280;11783;50.350;6.576;2023-04-25T00:48:57;95556.44;;;7.18;100.00
23229;BME280;11783;50.350;6.576;2023-04-25T00:51:23;95557.81;;;7.21;100.00
23229;BME280;11783;50.350;6.576;2023-04-25T00:53:50;95560.28;;;7.11;100.00
23229;BME280;11783;50.350;6.576;2023-04-25T00:56:16;95556.44;;;7.18;100.00
23229;BME280;11783;50.350;6.576;2023-04-25T00:58:42;95561.41;;;7.15;100.00
23229;BME280;11783;50.350;6.576;2023-04-25T01:01:08;95549.56;;;7.17;100.00
23229;BME280;11783;50.350;6.576;2023-04-25T01:03:37;95561.97;;;7.17;100.00
23229;BME280;11783;50.350;6.576;2023-04-25T01:06:09;95559.81;;;7.14;100.00
23229;BME280;11783;50.350;6.576;2023-04-25T01:08:36;95547.31;;;7.09;100.00
23229;BME280;11783;50.350;6.576;2023-04-25T01:11:02;95542.09;;;7.14;100.00
23229;BME280;11783;50.350;6.576;2023-04-25T01:13:27;95539.47;;;7.14;100.00
23229;BME280;11783;50.350;6.576;2023-04-25T01:15:53;95550.59;;;7.16;100.00
23229;BME280;11783;50.350;6.576;2023-04-25T01:18:19;95545.72;;;7.08;100.00
23229;BME280;11783;50.350;6.576;2023-04-25T01:20:46;95546.16;;;7.05;100.00
23229;BME280;11783;50.350;6.576;2023-04-25T01:23:12;95538.66;;;7.14;100.00
23229;BME280;11783;50.350;6.576;2023-04-25T01:25:39;95535.78;;;7.15;100.00
23229;BME280;11783;50.350;6.576;2023-04-25T01:28:05;95545.88;;;7.18;100.00
23229;BME280;11783;50.350;6.576;2023-04-25T01:30:30;95551.88;;;7.14;100.00
23229;BME280;11783;50.350;6.576;2023-04-25T01:32:56;95556.59;;;7.12;99.67
23229;BME280;11783;50.350;6.576;2023-04-25T01:35:22;95557.16;;;7.14;100.00
23229;BME280;11783;50.350;6.576;2023-04-25T01:37:49;95565.66;;;7.16;100.00
23229;BME280;11783;50.350;6.576;2023-04-25T01:40:14;95558.91;;;7.08;100.00
23229;BME280;11783;50.350;6.576;2023-04-25T01:42:42;95557.41;;;7.12;100.00
23229;BME280;11783;50.350;6.576;2023-04-25T01:45:08;95553.03;;;7.06;100.00
23229;BME280;11783;50.350;6.576;2023-04-25T01:47:34;95551.56;;;7.10;100.00
23229;BME280;11783;50.350;6.576;2023-04-25T01:50:04;95554.19;;;7.10;100.00
23229;BME280;11783;50.350;6.576;2023-04-25T01:52:30;95557.88;;;7.09;99.71
23229;BME280;11783;50.350;6.576;2023-04-25T01:54:57;95554.19;;;7.10;99.52
23229;BME280;11783;50.350;6.576;2023-04-25T01:57:23;95556.28;;;7.08;99.85
23229;BME280;11783;50.350;6.576;2023-04-25T01:59:49;95557.53;;;7.06;100.00
23229;BME280;11783;50.350;6.576;2023-04-25T02:02:15;95558.69;;;7.10;100.00
23229;BME280;11783;50.350;6.576;2023-04-25T02:04:40;95559.97;;;7.07;99.53
23229;BME280;11783;50.350;6.576;2023-04-25T02:07:05;95565.84;;;6.97;99.93
23229;BME280;11783;50.350;6.576;2023-04-25T02:09:31;95564.81;;;6.98;99.70
23229;BME280;11783;50.350;6.576;2023-04-25T02:11:57;95559.53;;;6.98;99.47
23229;BME280;11783;50.350;6.576;2023-04-25T02:14:23;95563.75;;;6.99;99.46
23229;BME280;11783;50.350;6.576;2023-04-25T02:16:48;95564.31;;;7.02;99.82
23229;BME280;11783;50.350;6.576;2023-04-25T02:19:14;95565.13;;;7.02;99.66
23229;BME280;11783;50.350;6.576;2023-04-25T02:21:39;95555.84;;;6.99;99.24
23229;BME280;11783;50.350;6.576;2023-04-25T02:24:05;95561.84;;;6.95;99.61
23229;BME280;11783;50.350;6.576;2023-04-25T02:26:31;95552.06;;;6.95;99.43
23229;BME280;11783;50.350;6.576;2023-04-25T02:28:57;95560.25;;;6.94;99.28
23229;BME280;11783;50.350;6.576;2023-04-25T02:31:22;95562.19;;;6.87;99.09
23229;BME280;11783;50.350;6.576;2023-04-25T02:33:48;95578.63;;;6.89;98.78
23229;BME280;11783;50.350;6.576;2023-04-25T02:36:13;95569.56;;;6.85;99.18
23229;BME280;11783;50.350;6.576;2023-04-25T02:38:39;95572.19;;;6.85;98.93
23229;BME280;11783;50.350;6.576;2023-04-25T02:41:04;95573.81;;;6.86;98.68
23229;BME280;11783;50.350;6.576;2023-04-25T02:43:30;95579.88;;;6.86;98.55
23229;BME280;11783;50.350;6.576;2023-04-25T02:45:55;95575.00;;;6.78;99.78
23229;BME280;11783;50.350;6.576;2023-04-25T02:48:21;95577.97;;;6.82;99.43
23229;BME280;11783;50.350;6.576;2023-04-25T02:50:46;95576.34;;;6.81;99.16
23229;BME280;11783;50.350;6.576;2023-04-25T02:53:11;95573.72;;;6.81;99.60
23229;BME280;11783;50.350;6.576;2023-04-25T02:55:37;95572.59;;;6.77;99.08
23229;BME280;11783;50.350;6.576;2023-04-25T02:58:02;95572.81;;;6.75;99.76
23229;BME280;11783;50.350;6.576;2023-04-25T03:00:28;95574.91;;;6.73;99.50
23229;BME280;11783;50.350;6.576;2023-04-25T03:02:53;95579.38;;;6.73;99.07
23229;BME280;11783;50.350;6.576;2023-04-25T03:05:19;95580.19;;;6.73;99.63
23229;BME280;11783;50.350;6.576;2023-04-25T03:07:44;95568.47;;;6.69;99.55
23229;BME280;11783;50.350;6.576;2023-04-25T03:10:11;95572.38;;;6.66;99.41
23229;BME280;11783;50.350;6.576;2023-04-25T03:12:37;95578.94;;;6.64;99.22
23229;BME280;11783;50.350;6.576;2023-04-25T03:15:02;95576.75;;;6.61;99.54
23229;BME280;11783;50.350;6.576;2023-04-25T03:17:28;95573.31;;;6.60;99.45
23229;BME280;11783;50.350;6.576;2023-04-25T03:19:54;95576.19;;;6.59;99.66
23229;BME280;11783;50.350;6.576;2023-04-25T03:22:20;95575.06;;;6.55;99.66
23229;BME280;11783;50.350;6.576;2023-04-25T03:24:46;95578.50;;;6.55;99.52
23229;BME280;11783;50.350;6.576;2023-04-25T03:27:12;95579.06;;;6.57;99.45
23229;BME280;11783;50.350;6.576;2023-04-25T03:29:37;95576.19;;;6.59;99.42
23229;BME280;11783;50.350;6.576;2023-04-25T03:32:02;95570.13;;;6.58;98.99
23229;BME280;11783;50.350;6.576;2023-04-25T03:34:28;95570.13;;;6.58;99.07
23229;BME280;11783;50.350;6.576;2023-04-25T03:36:53;95555.31;;;6.57;99.51
23229;BME280;11783;50.350;6.576;2023-04-25T03:39:19;95561.88;;;6.55;98.75
23229;BME280;11783;50.350;6.576;2023-04-25T03:41:44;95565.78;;;6.52;99.21
23229;BME280;11783;50.350;6.576;2023-04-25T03:44:09;95571.06;;;6.52;98.92
23229;BME280;11783;50.350;6.576;2023-04-25T03:46:35;95577.38;;;6.51;98.67
23229;BME280;11783;50.350;6.576;2023-04-25T03:49:00;95577.81;;;6.48;99.29
23229;BME280;11783;50.350;6.576;2023-04-25T03:51:26;95575.41;;;6.47;99.02
23229;BME280;11783;50.350;6.576;2023-04-25T03:53:52;95575.16;;;6.48;98.67
23229;BME280;11783;50.350;6.576;2023-04-25T03:56:17;95586.19;;;6.45;98.85
23229;BME280;11783;50.350;6.576;2023-04-25T03:58:43;95576.69;;;6.44;98.41
23229;BME280;11783;50.350;6.576;2023-04-25T04:01:08;95586.19;;;6.45;99.22
23229;BME280;11783;50.350;6.576;2023-04-25T04:03:34;95591.25;;;6.47;98.84
23229;BME280;11783;50.350;6.576;2023-04-25T04:06:01;95589.41;;;6.47;98.09
23229;BME280;11783;50.350;6.576;2023-04-25T04:08:27;95588.38;;;6.48;99.34
23229;BME280;11783;50.350;6.576;2023-04-25T04:10:53;95590.91;;;6.43;99.21
23229;BME280;11783;50.350;6.576;2023-04-25T04:13:18;95590.44;;;6.46;98.43
23229;BME280;11783;50.350;6.576;2023-04-25T04:15:43;95597.31;;;6.47;98.66
23229;BME280;11783;50.350;6.576;2023-04-25T04:18:09;95592.03;;;6.47;98.35
23229;BME280;11783;50.350;6.576;2023-04-25T04:20:34;95599.97;;;6.47;99.14
23229;BME280;11783;50.350;6.576;2023-04-25T04:23:00;95595.97;;;6.45;98.69
23229;BME280;11783;50.350;6.576;2023-04-25T04:25:26;95599.41;;;6.45;99.38
23229;BME280;11783;50.350;6.576;2023-04-25T04:27:51;95601.47;;;6.43;98.60
23229;BME280;11783;50.350;6.576;2023-04-25T04:30:21;95602.50;;;6.42;99.39
23229;BME280;11783;50.350;6.576;2023-04-25T04:32:49;95604.56;;;6.40;98.82
23229;BME280;11783;50.350;6.576;2023-04-25T04:35:14;95598.25;;;6.41;98.39
23229;BME280;11783;50.350;6.576;2023-04-25T04:37:39;95606.19;;;6.41;98.72
23229;BME280;11783;50.350;6.576;2023-04-25T04:40:05;95598.59;;;6.45;98.27
23229;BME280;11783;50.350;6.576;2023-04-25T04:42:32;95602.03;;;6.45;98.77
23229;BME280;11783;50.350;6.576;2023-04-25T04:44:57;95607.78;;;6.42;98.67
23229;BME280;11783;50.350;6.576;2023-04-25T04:47:24;95612.50;;;6.40;99.03
23229;BME280;11783;50.350;6.576;2023-04-25T04:49:50;95616.41;;;6.37;99.00
23229;BME280;11783;50.350;6.576;2023-04-25T04:52:16;95617.31;;;6.43;98.88
23229;BME280;11783;50.350;6.576;2023-04-25T04:54:41;95618.56;;;6.41;98.53
23229;BME280;11783;50.350;6.576;2023-04-25T04:57:07;95619.84;;;6.38;99.20
23229;BME280;11783;50.350;6.576;2023-04-25T04:59:32;95624.19;;;6.44;100.00
23229;BME280;11783;50.350;6.576;2023-04-25T05:01:57;95624.22;;;6.32;100.00
23229;BME280;11783;50.350;6.576;2023-04-25T05:04:23;95632.13;;;6.21;100.00
23229;BME280;11783;50.350;6.576;2023-04-25T05:06:48;95625.16;;;6.15;100.00
23229;BME280;11783;50.350;6.576;2023-04-25T05:09:13;95638.19;;;6.10;100.00
23229;BME280;11783;50.350;6.576;2023-04-25T05:11:40;95643.47;;;6.10;100.00
23229;BME280;11783;50.350;6.576;2023-04-25T05:14:05;95645.06;;;6.11;100.00
23229;BME280;11783;50.350;6.576;2023-04-25T05:16:30;95645.31;;;5.97;100.00
23229;BME280;11783;50.350;6.576;2023-04-25T05:18:56;95650.59;;;5.97;100.00
23229;BME280;11783;50.350;6.576;2023-04-25T05:21:21;95648.75;;;5.98;100.00
23229;BME280;11783;50.350;6.576;2023-04-25T05:23:47;95648.06;;;6.02;100.00
23229;BME280;11783;50.350;6.576;2023-04-25T05:26:12;95648.28;;;6.13;100.00
23229;BME280;11783;50.350;6.576;2023-04-25T05:28:40;95651.53;;;6.15;100.00
23229;BME280;11783;50.350;6.576;2023-04-25T05:31:06;95653.69;;;6.18;100.00
23229;BME280;11783;50.350;6.576;2023-04-25T05:33:32;95657.84;;;6.14;100.00
23229;BME280;11783;50.350;6.576;2023-04-25T05:35:57;95662.97;;;6.08;100.00
23229;BME280;11783;50.350;6.576;2023-04-25T05:38:23;95664.56;;;6.10;100.00
23229;BME280;11783;50.350;6.576;2023-04-25T05:40:48;95666.56;;;6.14;100.00
23229;BME280;11783;50.350;6.576;2023-04-25T05:43:13;95671.03;;;6.14;100.00
23229;BME280;11783;50.350;6.576;2023-04-25T05:45:39;95674.66;;;6.13;100.00
23229;BME280;11783;50.350;6.576;2023-04-25T05:48:04;95673.66;;;6.14;100.00
23229;BME280;11783;50.350;6.576;2023-04-25T05:50:29;95676.72;;;6.11;100.00
23229;BME280;11783;50.350;6.576;2023-04-25T05:52:55;95668.59;;;6.12;100.00
23229;BME280;11783;50.350;6.576;2023-04-25T05:55:20;95676.97;;;5.97;100.00
23229;BME280;11783;50.350;6.576;2023-04-25T05:57:45;95669.75;;;6.04;100.00
23229;BME280;11783;50.350;6.576;2023-04-25T06:00:14;95686.03;;;6.01;100.00
23229;BME280;11783;50.350;6.576;2023-04-25T06:02:41;95680.84;;;5.95;100.00
23229;BME280;11783;50.350;6.576;2023-04-25T06:05:07;95692.09;;;6.02;100.00
23229;BME280;11783;50.350;6.576;2023-04-25T06:07:32;95687.41;;;6.04;100.00
23229;BME280;11783;50.350;6.576;2023-04-25T06:09:58;95694.34;;;5.87;100.00
23229;BME280;11783;50.350;6.576;2023-04-25T06:12:24;95698.69;;;5.81;100.00
23229;BME280;11783;50.350;6.576;2023-04-25T06:14:50;95694.44;;;5.80;100.00
23229;BME280;11783;50.350;6.576;2023-04-25T06:17:15;95704.00;;;5.93;100.00
23229;BME280;11783;50.350;6.576;2023-04-25T06:19:40;95701.59;;;5.91;100.00
23229;BME280;11783;50.350;6.576;2023-04-25T06:22:06;95704.75;;;5.82;100.00
23229;BME280;11783;50.350;6.576;2023-04-25T06:24:32;95698.19;;;5.72;100.00
23229;BME280;11783;50.350;6.576;2023-04-25T06:26:58;95713.34;;;5.77;100.00
23229;BME280;11783;50.350;6.576;2023-04-25T06:29:23;95704.94;;;5.68;100.00
23229;BME280;11783;50.350;6.576;2023-04-25T06:31:48;95704.25;;;5.73;100.00
23229;BME280;11783;50.350;6.576;2023-04-25T06:34:14;95710.56;;;5.72;100.00
23229;BME280;11783;50.350;6.576;2023-04-25T06:36:40;95713.81;;;5.86;100.00
23229;BME280;11783;50.350;6.576;2023-04-25T06:39:07;95714.69;;;5.98;100.00
23229;BME280;11783;50.350;6.576;2023-04-25T06:41:32;95718.38;;;5.97;100.00
23229;BME280;11783;50.350;6.576;2023-04-25T06:43:58;95719.16;;;5.97;100.00
23229;BME280;11783;50.350;6.576;2023-04-25T06:46:23;95724.09;;;5.75;100.00
23229;BME280;11783;50.350;6.576;2023-04-25T06:48:48;95720.19;;;5.96;100.00
23229;BME280;11783;50.350;6.576;2023-04-25T06:51:14;95714.94;;;6.08;100.00
23229;BME280;11783;50.350;6.576;2023-04-25T06:53:40;95721.16;;;6.14;100.00
23229;BME280;11783;50.350;6.576;2023-04-25T06:56:05;95722.06;;;6.19;100.00
23229;BME280;11783;50.350;6.576;2023-04-25T06:58:31;95721.50;;;6.17;100.00
23229;BME280;11783;50.350;6.576;2023-04-25T07:00:56;95725.84;;;6.23;100.00
23229;BME280;11783;50.350;6.576;2023-04-25T07:03:22;95725.16;;;6.16;100.00
23229;BME280;11783;50.350;6.576;2023-04-25T07:05:47;95735.00;;;5.97;100.00
23229;BME280;11783;50.350;6.576;2023-04-25T07:08:13;95743.34;;;5.94;100.00
23229;BME280;11783;50.350;6.576;2023-04-25T07:10:38;95741.22;;;6.15;100.00
23229;BME280;11783;50.350;6.576;2023-04-25T07:13:03;95744.31;;;6.23;100.00
23229;BME280;11783;50.350;6.576;2023-04-25T07:15:29;95737.47;;;6.34;99.41
23229;BME280;11783;50.350;6.576;2023-04-25T07:17:54;95739.66;;;6.37;100.00
23229;BME280;11783;50.350;6.576;2023-04-25T07:20:19;95753.72;;;6.31;98.60
23229;BME280;11783;50.350;6.576;2023-04-25T07:22:45;95743.78;;;6.33;99.38
23229;BME280;11783;50.350;6.576;2023-04-25T07:25:10;95756.38;;;6.31;99.12
23229;BME280;11783;50.350;6.576;2023-04-25T07:27:36;95747.78;;;6.35;98.34
23229;BME280;11783;50.350;6.576;2023-04-25T07:30:01;95751.81;;;6.38;98.60
23229;BME280;11783;50.350;6.576;2023-04-25T07:32:27;95755.25;;;6.38;100.00
23229;BME280;11783;50.350;6.576;2023-04-25T07:34:52;95746.66;;;6.43;100.00
23229;BME280;11783;50.350;6.576;2023-04-25T07:37:18;95748.25;;;6.44;99.95
23229;BME280;11783;50.350;6.576;2023-04-25T07:39:44;95751.00;;;6.49;99.74
23229;BME280;11783;50.350;6.576;2023-04-25T07:42:11;95751.59;;;6.51;99.98
23229;BME280;11783;50.350;6.576;2023-04-25T07:44:37;95755.97;;;6.57;98.52
23229;BME280;11783;50.350;6.576;2023-04-25T07:47:06;95761.34;;;6.62;98.61
23229;BME280;11783;50.350;6.576;2023-04-25T07:49:35;95750.78;;;6.62;98.69
23229;BME280;11783;50.350;6.576;2023-04-25T07:52:01;95765.91;;;6.20;97.95
23229;BME280;11783;50.350;6.576;2023-04-25T07:54:27;95772.50;;;5.99;100.00
23229;BME280;11783;50.350;6.576;2023-04-25T07:56:52;95777.84;;;5.93;100.00
23229;BME280;11783;50.350;6.576;2023-04-25T07:59:18;95784.47;;;6.14;100.00
23229;BME280;11783;50.350;6.576;2023-04-25T08:01:43;95796.81;;;6.01;100.00
23229;BME280;11783;50.350;6.576;2023-04-25T08:04:08;95794.53;;;6.05;100.00
23229;BME280;11783;50.350;6.576;2023-04-25T08:06:34;95789.81;;;5.95;100.00
23229;BME280;11783;50.350;6.576;2023-04-25T08:09:00;95796.59;;;6.03;100.00
23229;BME280;11783;50.350;6.576;2023-04-25T08:11:25;95794.91;;;6.20;100.00
23229;BME280;11783;50.350;6.576;2023-04-25T08:13:50;95804.94;;;6.42;100.00
23229;BME280;11783;50.350;6.576;2023-04-25T08:16:16;95814.25;;;6.44;99.10
23229;BME280;11783;50.350;6.576;2023-04-25T08:18:41;95812.09;;;6.53;97.63
23229;BME280;11783;50.350;6.576;2023-04-25T08:21:07;95819.22;;;6.52;98.54
23229;BME280;11783;50.350;6.576;2023-04-25T08:23:34;95819.78;;;6.66;98.36
23229;BME280;11783;50.350;6.576;2023-04-25T08:25:59;95827.34;;;6.51;94.73
23229;BME280;11783;50.350;6.576;2023-04-25T08:28:25;95827.13;;;6.64;98.64
23229;BME280;11783;50.350;6.576;2023-04-25T08:30:50;95825.06;;;6.66;97.23
23229;BME280;11783;50.350;6.576;2023-04-25T08:33:16;95833.75;;;6.43;94.04
23229;BME280;11783;50.350;6.576;2023-04-25T08:35:42;95846.09;;;6.19;94.78
23229;BME280;11783;50.350;6.576;2023-04-25T08:38:07;95846.16;;;6.13;96.13
23229;BME280;11783;50.350;6.576;2023-04-25T08:40:35;95846.56;;;6.28;97.46
23229;BME280;11783;50.350;6.576;2023-04-25T08:43:03;95851.75;;;6.34;98.70
23229;BME280;11783;50.350;6.576;2023-04-25T08:45:31;95860.41;;;6.53;98.00
23229;BME280;11783;50.350;6.576;2023-04-25T08:47:57;95860.16;;;6.43;94.14
23229;BME280;11783;50.350;6.576;2023-04-25T08:50:23;95866.50;;;6.54;95.63
23229;BME280;11783;50.350;6.576;2023-04-25T08:52:49;95870.41;;;6.63;94.80
23229;BME280;11783;50.350;6.576;2023-04-25T08:55:18;95876.84;;;6.67;95.64
23229;BME280;11783;50.350;6.576;2023-04-25T08:57:44;95868.03;;;6.73;93.98
23229;BME280;11783;50.350;6.576;2023-04-25T09:00:11;95884.66;;;6.62;92.92
23229;BME280;11783;50.350;6.576;2023-04-25T09:02:39;95886.75;;;6.72;89.50
23229;BME280;11783;50.350;6.576;2023-04-25T09:05:05;95894.09;;;6.70;89.75
23229;BME280;11783;50.350;6.576;2023-04-25T09:07:31;95894.44;;;6.73;91.86
23229;BME280;11783;50.350;6.576;2023-04-25T09:09:57;95906.97;;;6.48;93.23
23229;BME280;11783;50.350;6.576;2023-04-25T09:12:25;95902.28;;;6.50;94.70
23229;BME280;11783;50.350;6.576;2023-04-25T09:15:04;95902.56;;;6.60;95.03
23229;BME280;11783;50.350;6.576;2023-04-25T09:17:30;95902.66;;;6.53;89.18
23229;BME280;11783;50.350;6.576;2023-04-25T09:20:05;95908.75;;;6.54;93.79
23229;BME280;11783;50.350;6.576;2023-04-25T09:22:31;95909.16;;;6.81;92.35
23229;BME280;11783;50.350;6.576;2023-04-25T09:24:56;95905.50;;;6.93;94.14
23229;BME280;11783;50.350;6.576;2023-04-25T09:27:22;95909.41;;;6.91;92.67
23229;BME280;11783;50.350;6.576;2023-04-25T09:29:57;95905.63;;;6.98;95.97
23229;BME280;11783;50.350;6.576;2023-04-25T09:32:24;95916.75;;;6.89;87.52
23229;BME280;11783;50.350;6.576;2023-04-25T09:34:57;95903.41;;;6.84;91.10
23229;BME280;11783;50.350;6.576;2023-04-25T09:37:27;95909.00;;;6.64;87.89
23229;BME280;11783;50.350;6.576;2023-04-25T09:39:58;95915.72;;;6.48;86.80
23229;BME280;11783;50.350;6.576;2023-04-25T09:42:27;95922.88;;;6.59;87.79
23229;BME280;11783;50.350;6.576;2023-04-25T09:44:55;95923.41;;;6.50;87.22
23229;BME280;11783;50.350;6.576;2023-04-25T09:47:23;95916.44;;;6.55;89.86
23229;BME280;11783;50.350;6.576;2023-04-25T09:49:50;95914.53;;;6.74;85.03
23229;BME280;11783;50.350;6.576;2023-04-25T09:52:18;95917.44;;;6.96;86.84
23229;BME280;11783;50.350;6.576;2023-04-25T09:54:48;95925.06;;;7.16;86.89
23229;BME280;11783;50.350;6.576;2023-04-25T09:57:17;95921.28;;;7.47;86.46
23229;BME280;11783;50.350;6.576;2023-04-25T09:59:45;95930.00;;;7.71;82.06
23229;BME280;11783;50.350;6.576;2023-04-25T10:02:13;95927.59;;;7.69;83.05
23229;BME280;11783;50.350;6.576;2023-04-25T10:04:39;95930.22;;;7.57;77.04
23229;BME280;11783;50.350;6.576;2023-04-25T10:07:06;95939.88;;;7.75;80.37
23229;BME280;11783;50.350;6.576;2023-04-25T10:09:33;95955.13;;;8.08;84.02
23229;BME280;11783;50.350;6.576;2023-04-25T10:12:02;95950.72;;;8.14;78.57
23229;BME280;11783;50.350;6.576;2023-04-25T10:14:30;95959.03;;;8.06;72.01
23229;BME280;11783;50.350;6.576;2023-04-25T10:16:57;95961.59;;;7.77;73.14
23229;BME280;11783;50.350;6.576;2023-04-25T10:19:24;95974.47;;;7.62;77.77
23229;BME280;11783;50.350;6.576;2023-04-25T10:24:44;95971.16;;;7.67;80.00
23229;BME280;11783;50.350;6.576;2023-04-25T10:27:12;95977.03;;;7.57;73.20
23229;BME280;11783;50.350;6.576;2023-04-25T10:29:37;95979.44;;;7.47;73.58
23229;BME280;11783;50.350;6.576;2023-04-25T10:32:03;95975.38;;;7.21;71.81
23229;BME280;11783;50.350;6.576;2023-04-25T10:34:42;95975.06;;;7.29;71.16
23229;BME280;11783;50.350;6.576;2023-04-25T10:37:10;95983.00;;;7.41;70.71
23229;BME280;11783;50.350;6.576;2023-04-25T10:39:39;95982.66;;;7.49;69.03
23229;BME280;11783;50.350;6.576;2023-04-25T10:42:05;95974.47;;;7.39;70.34
23229;BME280;11783;50.350;6.576;2023-04-25T10:44:31;95974.03;;;7.42;68.83
23229;BME280;11783;50.350;6.576;2023-04-25T10:46:59;95975.41;;;7.56;71.70
23229;BME280;11783;50.350;6.576;2023-04-25T10:49:42;95971.50;;;7.82;71.41
23229;BME280;11783;50.350;6.576;2023-04-25T10:54:41;95964.53;;;8.16;73.25
23229;BME280;11783;50.350;6.576;2023-04-25T10:57:07;95964.44;;;8.11;67.20
23229;BME280;11783;50.350;6.576;2023-04-25T10:59:32;95968.25;;;8.03;67.00
23229;BME280;11783;50.350;6.576;2023-04-25T11:01:58;95972.72;;;8.14;66.89
23229;BME280;11783;50.350;6.576;2023-04-25T11:04:25;95975.59;;;8.13;69.92
23229;BME280;11783;50.350;6.576;2023-04-25T11:09:28;95972.41;;;7.87;67.53
23229;BME280;11783;50.350;6.576;2023-04-25T11:11:57;95974.38;;;7.92;72.53
23229;BME280;11783;50.350;6.576;2023-04-25T11:14:24;95976.69;;;7.88;71.61
23229;BME280;11783;50.350;6.576;2023-04-25T11:16:53;95971.16;;;7.78;70.00
23229;BME280;11783;50.350;6.576;2023-04-25T11:19:20;95981.50;;;7.92;70.94
23229;BME280;11783;50.350;6.576;2023-04-25T11:21:46;95976.09;;;7.86;70.55
23229;BME280;11783;50.350;6.576;2023-04-25T11:24:11;95973.22;;;7.88;70.82
23229;BME280;11783;50.350;6.576;2023-04-25T11:26:36;95979.50;;;8.10;72.23
23229;BME280;11783;50.350;6.576;2023-04-25T11:29:02;95978.34;;;8.18;69.29
23229;BME280;11783;50.350;6.576;2023-04-25T11:31:28;95965.19;;;8.46;73.14
23229;BME280;11783;50.350;6.576;2023-04-25T11:33:54;95966.44;;;8.56;67.45
23229;BME280;11783;50.350;6.576;2023-04-25T11:36:23;95964.84;;;8.43;66.76
23229;BME280;11783;50.350;6.576;2023-04-25T11:38:50;95971.59;;;8.50;72.64
23229;BME280;11783;50.350;6.576;2023-04-25T11:41:15;95976.31;;;8.60;72.40
23229;BME280;11783;50.350;6.576;2023-04-25T11:43:43;95976.78;;;8.57;70.42
23229;BME280;11783;50.350;6.576;2023-04-25T11:46:09;95980.16;;;8.29;68.27
23229;BME280;11783;50.350;6.576;2023-04-25T11:48:41;95981.09;;;8.23;68.27
23229;BME280;11783;50.350;6.576;2023-04-25T11:51:07;95980.72;;;8.31;67.52
23229;BME280;11783;50.350;6.576;2023-04-25T11:53:33;95980.53;;;8.21;67.55
23229;BME280;11783;50.350;6.576;2023-04-25T11:55:58;95984.94;;;8.04;66.23
23229;BME280;11783;50.350;6.576;2023-04-25T11:58:25;95987.03;;;7.90;68.01
23229;BME280;11783;50.350;6.576;2023-04-25T12:00:50;95992.19;;;8.08;69.92
23229;BME280;11783;50.350;6.576;2023-04-25T12:03:17;95998.03;;;8.10;71.28
23229;BME280;11783;50.350;6.576;2023-04-25T12:05:44;96006.78;;;7.99;68.37
23229;BME280;11783;50.350;6.576;2023-04-25T12:08:13;96011.03;;;8.12;72.11
23229;BME280;11783;50.350;6.576;2023-04-25T12:10:40;96005.75;;;8.12;69.42
23229;BME280;11783;50.350;6.576;2023-04-25T12:13:25;96003.47;;;8.04;67.50
23229;BME280;11783;50.350;6.576;2023-04-25T12:15:54;96008.88;;;7.97;66.96
23229;BME280;11783;50.350;6.576;2023-04-25T12:18:20;96014.97;;;7.98;67.85
23229;BME280;11783;50.350;6.576;2023-04-25T12:20:48;96012.88;;;8.23;69.92
23229;BME280;11783;50.350;6.576;2023-04-25T12:23:13;96008.97;;;8.37;70.00
23229;BME280;11783;50.350;6.576;2023-04-25T12:25:43;96010.34;;;8.68;71.86
23229;BME280;11783;50.350;6.576;2023-04-25T12:28:23;96004.81;;;8.98;74.15
23229;BME280;11783;50.350;6.576;2023-04-25T12:30:58;96000.66;;;9.02;67.85
23229;BME280;11783;50.350;6.576;2023-04-25T12:33:25;96006.38;;;9.28;66.77
23229;BME280;11783;50.350;6.576;2023-04-25T12:35:52;96001.41;;;9.48;69.75
23229;BME280;11783;50.350;6.576;2023-04-25T12:38:28;96002.84;;;9.39;63.14
23229;BME280;11783;50.350;6.576;2023-04-25T12:40:58;96009.31;;;8.98;64.74
23229;BME280;11783;50.350;6.576;2023-04-25T12:43:24;96013.72;;;8.92;66.37
23229;BME280;11783;50.350;6.576;2023-04-25T12:45:51;96005.50;;;8.77;68.51
23229;BME280;11783;50.350;6.576;2023-04-25T12:48:17;96022.66;;;9.03;66.32
23229;BME280;11783;50.350;6.576;2023-04-25T12:50:42;96019.53;;;9.06;66.60
23229;BME280;11783;50.350;6.576;2023-04-25T12:53:08;96014.50;;;9.38;65.69
23229;BME280;11783;50.350;6.576;2023-04-25T12:55:33;96020.16;;;8.96;60.47
23229;BME280;11783;50.350;6.576;2023-04-25T12:57:59;96021.66;;;9.21;67.14
23229;BME280;11783;50.350;6.576;2023-04-25T13:00:24;96022.16;;;9.51;67.71
23229;BME280;11783;50.350;6.576;2023-04-25T13:02:50;96015.97;;;9.46;61.75
23229;BME280;11783;50.350;6.576;2023-04-25T13:05:15;96023.53;;;9.37;62.88
23229;BME280;11783;50.350;6.576;2023-04-25T13:07:40;96026.13;;;9.49;64.70
23229;BME280;11783;50.350;6.576;2023-04-25T13:10:06;96025.53;;;9.63;64.96